sensor_id;sensor_type;location;lat;lon;timestamp;P1;durP1;ratioP1;P2;durP2;ratioP2
63534;SDS011;55128;50.230;18.944;2023-04-24T00:01:04;17.70;;;13.35;;
63534;SDS011;55128;50.230;18.944;2023-04-24T00:06:07;16.85;;;12.85;;
63534;SDS011;55128;50.230;18.944;2023-04-24T00:11:10;18.60;;;14.18;;
63534;SDS011;55128;50.230;18.944;2023-04-24T00:16:10;19.00;;;14.40;;
63534;SDS011;55128;50.230;18.944;2023-04-24T00:21:11;18.03;;;13.80;;
63534;SDS011;55128;50.230;18.944;2023-04-24T00:26:11;17.92;;;14.02;;
63534;SDS011;55128;50.230;18.944;2023-04-24T00:31:12;21.27;;;15.87;;
63534;SDS011;55128;50.230;18.944;2023-04-24T00:36:12;22.13;;;16.85;;
63534;SDS011;55128;50.230;18.944;2023-04-24T00:41:12;18.57;;;15.57;;
63534;SDS011;55128;50.230;18.944;2023-04-24T00:46:13;21.88;;;16.90;;
63534;SDS011;55128;50.230;18.944;2023-04-24T00:51:14;18.52;;;15.52;;
63534;SDS011;55128;50.230;18.944;2023-04-24T00:56:14;16.80;;;13.98;;
63534;SDS011;55128;50.230;18.944;2023-04-24T01:01:15;17.95;;;13.15;;
63534;SDS011;55128;50.230;18.944;2023-04-24T01:06:15;15.65;;;13.30;;
63534;SDS011;55128;50.230;18.944;2023-04-24T01:11:16;20.98;;;14.05;;
63534;SDS011;55128;50.230;18.944;2023-04-24T01:16:18;16.33;;;13.73;;
63534;SDS011;55128;50.230;18.944;2023-04-24T01:21:21;17.63;;;13.48;;
63534;SDS011;55128;50.230;18.944;2023-04-24T01:26:23;17.98;;;14.13;;
63534;SDS011;55128;50.230;18.944;2023-04-24T01:31:25;20.75;;;12.77;;
63534;SDS011;55128;50.230;18.944;2023-04-24T01:36:26;16.92;;;13.70;;
63534;SDS011;55128;50.230;18.944;2023-04-24T01:41:29;15.43;;;12.75;;
63534;SDS011;55128;50.230;18.944;2023-04-24T01:46:30;16.23;;;11.25;;
63534;SDS011;55128;50.230;18.944;2023-04-24T01:51:31;16.20;;;11.07;;
63534;SDS011;55128;50.230;18.944;2023-04-24T01:56:33;15.07;;;11.25;;
63534;SDS011;55128;50.230;18.944;2023-04-24T02:01:35;12.80;;;10.40;;
63534;SDS011;55128;50.230;18.944;2023-04-24T02:06:38;15.65;;;10.32;;
63534;SDS011;55128;50.230;18.944;2023-04-24T02:11:39;12.00;;;9.27;;
63534;SDS011;55128;50.230;18.944;2023-04-24T02:16:39;13.48;;;9.25;;
63534;SDS011;55128;50.230;18.944;2023-04-24T02:21:40;12.18;;;9.23;;
63534;SDS011;55128;50.230;18.944;2023-04-24T02:26:40;13.90;;;9.40;;
63534;SDS011;55128;50.230;18.944;2023-04-24T02:31:40;13.40;;;9.23;;
63534;SDS011;55128;50.230;18.944;2023-04-24T02:36:41;12.00;;;8.17;;
63534;SDS011;55128;50.230;18.944;2023-04-24T02:41:41;13.80;;;8.45;;
63534;SDS011;55128;50.230;18.944;2023-04-24T02:46:42;11.88;;;8.18;;
63534;SDS011;55128;50.230;18.944;2023-04-24T02:51:42;11.23;;;8.02;;
63534;SDS011;55128;50.230;18.944;2023-04-24T02:56:42;13.75;;;8.93;;
63534;SDS011;55128;50.230;18.944;2023-04-24T03:01:43;13.68;;;9.45;;
63534;SDS011;55128;50.230;18.944;2023-04-24T03:06:43;12.03;;;8.10;;
63534;SDS011;55128;50.230;18.944;2023-04-24T03:11:43;13.70;;;8.60;;
63534;SDS011;55128;50.230;18.944;2023-04-24T03:16:44;11.03;;;8.50;;
63534;SDS011;55128;50.230;18.944;2023-04-24T03:21:44;12.38;;;7.97;;
63534;SDS011;55128;50.230;18.944;2023-04-24T03:26:45;12.70;;;8.52;;
63534;SDS011;55128;50.230;18.944;2023-04-24T03:31:45;12.27;;;8.40;;
63534;SDS011;55128;50.230;18.944;2023-04-24T03:36:45;10.85;;;7.97;;
63534;SDS011;55128;50.230;18.944;2023-04-24T03:41:47;9.77;;;7.93;;
63534;SDS011;55128;50.230;18.944;2023-04-24T03:46:47;10.18;;;7.68;;
63534;SDS011;55128;50.230;18.944;2023-04-24T03:51:48;10.53;;;7.37;;
63534;SDS011;55128;50.230;18.944;2023-04-24T03:56:48;8.40;;;6.82;;
63534;SDS011;55128;50.230;18.944;2023-04-24T04:01:48;7.72;;;6.57;;
63534;SDS011;55128;50.230;18.944;2023-04-24T04:06:49;9.10;;;7.18;;
63534;SDS011;55128;50.230;18.944;2023-04-24T04:11:49;8.40;;;6.95;;
63534;SDS011;55128;50.230;18.944;2023-04-24T04:16:50;9.50;;;7.10;;
63534;SDS011;55128;50.230;18.944;2023-04-24T04:21:51;10.40;;;6.95;;
63534;SDS011;55128;50.230;18.944;2023-04-24T04:26:53;8.45;;;6.35;;
63534;SDS011;55128;50.230;18.944;2023-04-24T04:31:56;9.75;;;7.35;;
63534;SDS011;55128;50.230;18.944;2023-04-24T04:36:57;8.30;;;7.07;;
63534;SDS011;55128;50.230;18.944;2023-04-24T04:42:01;9.67;;;6.80;;
63534;SDS011;55128;50.230;18.944;2023-04-24T04:47:01;12.55;;;7.15;;
63534;SDS011;55128;50.230;18.944;2023-04-24T04:52:05;10.13;;;7.43;;
63534;SDS011;55128;50.230;18.944;2023-04-24T04:57:05;12.40;;;8.10;;
63534;SDS011;55128;50.230;18.944;2023-04-24T05:02:06;11.38;;;8.15;;
63534;SDS011;55128;50.230;18.944;2023-04-24T05:07:06;8.48;;;6.88;;
63534;SDS011;55128;50.230;18.944;2023-04-24T05:12:07;8.07;;;6.45;;
63534;SDS011;55128;50.230;18.944;2023-04-24T05:17:07;9.30;;;7.07;;
63534;SDS011;55128;50.230;18.944;2023-04-24T05:22:08;7.43;;;5.60;;
63534;SDS011;55128;50.230;18.944;2023-04-24T05:27:09;7.57;;;5.05;;
63534;SDS011;55128;50.230;18.944;2023-04-24T05:32:10;6.97;;;5.70;;
63534;SDS011;55128;50.230;18.944;2023-04-24T05:37:10;7.83;;;5.57;;
63534;SDS011;55128;50.230;18.944;2023-04-24T05:42:10;8.60;;;4.90;;
63534;SDS011;55128;50.230;18.944;2023-04-24T05:47:11;6.57;;;5.45;;
63534;SDS011;55128;50.230;18.944;2023-04-24T05:52:11;8.73;;;5.05;;
63534;SDS011;55128;50.230;18.944;2023-04-24T05:57:11;8.07;;;5.40;;
63534;SDS011;55128;50.230;18.944;2023-04-24T06:02:12;10.73;;;5.25;;
63534;SDS011;55128;50.230;18.944;2023-04-24T06:07:13;5.57;;;4.50;;
63534;SDS011;55128;50.230;18.944;2023-04-24T06:12:13;7.22;;;4.68;;
63534;SDS011;55128;50.230;18.944;2023-04-24T06:17:13;6.77;;;4.30;;
63534;SDS011;55128;50.230;18.944;2023-04-24T06:22:17;7.38;;;4.63;;
63534;SDS011;55128;50.230;18.944;2023-04-24T06:27:44;5.82;;;4.30;;
63534;SDS011;55128;50.230;18.944;2023-04-24T06:32:57;8.60;;;4.15;;
63534;SDS011;55128;50.230;18.944;2023-04-24T06:38:02;6.68;;;4.43;;
63534;SDS011;55128;50.230;18.944;2023-04-24T06:43:02;7.87;;;4.57;;
63534;SDS011;55128;50.230;18.944;2023-04-24T06:48:03;6.03;;;4.20;;
63534;SDS011;55128;50.230;18.944;2023-04-24T06:53:04;9.83;;;4.30;;
63534;SDS011;55128;50.230;18.944;2023-04-24T06:58:05;4.90;;;3.77;;
63534;SDS011;55128;50.230;18.944;2023-04-24T07:03:08;6.65;;;3.60;;
63534;SDS011;55128;50.230;18.944;2023-04-24T07:08:08;4.72;;;3.45;;
63534;SDS011;55128;50.230;18.944;2023-04-24T07:13:11;5.68;;;4.30;;
63534;SDS011;55128;50.230;18.944;2023-04-24T07:18:11;6.27;;;3.47;;
63534;SDS011;55128;50.230;18.944;2023-04-24T07:23:12;5.78;;;3.55;;
63534;SDS011;55128;50.230;18.944;2023-04-24T07:28:12;4.68;;;3.70;;
63534;SDS011;55128;50.230;18.944;2023-04-24T07:33:13;5.43;;;3.55;;
63534;SDS011;55128;50.230;18.944;2023-04-24T07:38:13;3.60;;;3.30;;
63534;SDS011;55128;50.230;18.944;2023-04-24T07:43:14;4.65;;;3.13;;
63534;SDS011;55128;50.230;18.944;2023-04-24T07:48:14;4.15;;;3.58;;
63534;SDS011;55128;50.230;18.944;2023-04-24T07:53:16;7.07;;;3.60;;
63534;SDS011;55128;50.230;18.944;2023-04-24T07:58:16;3.80;;;3.33;;
63534;SDS011;55128;50.230;18.944;2023-04-24T08:03:17;5.72;;;3.38;;
63534;SDS011;55128;50.230;18.944;2023-04-24T08:08:20;6.15;;;3.42;;
63534;SDS011;55128;50.230;18.944;2023-04-24T08:13:21;5.47;;;3.47;;
63534;SDS011;55128;50.230;18.944;2023-04-24T08:18:22;4.33;;;3.50;;
63534;SDS011;55128;50.230;18.944;2023-04-24T08:23:22;3.30;;;3.00;;
63534;SDS011;55128;50.230;18.944;2023-04-24T08:28:22;4.20;;;3.47;;
63534;SDS011;55128;50.230;18.944;2023-04-24T08:33:23;4.60;;;3.50;;
63534;SDS011;55128;50.230;18.944;2023-04-24T08:38:24;3.93;;;3.53;;
63534;SDS011;55128;50.230;18.944;2023-04-24T08:43:35;5.10;;;3.20;;
63534;SDS011;55128;50.230;18.944;2023-04-24T08:59:54;8.55;;;3.70;;
63534;SDS011;55128;50.230;18.944;2023-04-24T09:04:57;4.10;;;3.20;;
63534;SDS011;55128;50.230;18.944;2023-04-24T09:09:58;6.15;;;3.47;;
63534;SDS011;55128;50.230;18.944;2023-04-24T09:14:59;7.35;;;3.50;;
63534;SDS011;55128;50.230;18.944;2023-04-24T09:25:03;4.97;;;3.50;;
63534;SDS011;55128;50.230;18.944;2023-04-24T09:30:06;5.75;;;4.10;;
63534;SDS011;55128;50.230;18.944;2023-04-24T09:35:08;6.22;;;3.83;;
63534;SDS011;55128;50.230;18.944;2023-04-24T09:45:17;4.90;;;3.83;;
63534;SDS011;55128;50.230;18.944;2023-04-24T09:50:17;4.72;;;4.18;;
63534;SDS011;55128;50.230;18.944;2023-04-24T09:55:21;7.28;;;4.32;;
63534;SDS011;55128;50.230;18.944;2023-04-24T10:00:22;7.10;;;3.85;;
63534;SDS011;55128;50.230;18.944;2023-04-24T10:05:29;8.23;;;4.10;;
63534;SDS011;55128;50.230;18.944;2023-04-24T10:10:34;7.38;;;3.67;;
63534;SDS011;55128;50.230;18.944;2023-04-24T10:15:44;5.03;;;3.90;;
63534;SDS011;55128;50.230;18.944;2023-04-24T10:20:47;5.30;;;3.80;;
63534;SDS011;55128;50.230;18.944;2023-04-24T10:25:48;5.78;;;3.70;;
63534;SDS011;55128;50.230;18.944;2023-04-24T10:30:50;4.53;;;3.80;;
63534;SDS011;55128;50.230;18.944;2023-04-24T10:35:54;9.93;;;4.85;;
63534;SDS011;55128;50.230;18.944;2023-04-24T10:41:09;7.70;;;3.90;;
63534;SDS011;55128;50.230;18.944;2023-04-24T10:46:19;7.65;;;4.00;;
63534;SDS011;55128;50.230;18.944;2023-04-24T10:51:22;6.63;;;4.10;;
63534;SDS011;55128;50.230;18.944;2023-04-24T10:56:23;5.40;;;3.50;;
63534;SDS011;55128;50.230;18.944;2023-04-24T11:01:24;6.80;;;4.13;;
63534;SDS011;55128;50.230;18.944;2023-04-24T11:06:35;6.40;;;3.97;;
63534;SDS011;55128;50.230;18.944;2023-04-24T11:11:37;6.20;;;4.05;;
63534;SDS011;55128;50.230;18.944;2023-04-24T11:22:00;5.72;;;4.30;;
63534;SDS011;55128;50.230;18.944;2023-04-24T11:37:42;6.22;;;4.75;;
63534;SDS011;55128;50.230;18.944;2023-04-24T11:42:46;7.95;;;5.00;;
63534;SDS011;55128;50.230;18.944;2023-04-24T11:47:47;6.75;;;4.18;;
63534;SDS011;55128;50.230;18.944;2023-04-24T11:52:49;8.07;;;4.55;;
63534;SDS011;55128;50.230;18.944;2023-04-24T11:57:50;6.45;;;4.28;;
63534;SDS011;55128;50.230;18.944;2023-04-24T12:03:09;7.15;;;4.35;;
63534;SDS011;55128;50.230;18.944;2023-04-24T12:08:11;7.90;;;4.93;;
63534;SDS011;55128;50.230;18.944;2023-04-24T12:13:11;5.40;;;4.53;;
63534;SDS011;55128;50.230;18.944;2023-04-24T12:18:14;7.50;;;4.30;;
63534;SDS011;55128;50.230;18.944;2023-04-24T12:23:16;7.15;;;4.40;;
63534;SDS011;55128;50.230;18.944;2023-04-24T12:28:37;6.65;;;4.40;;
63534;SDS011;55128;50.230;18.944;2023-04-24T12:33:38;5.85;;;4.35;;
63534;SDS011;55128;50.230;18.944;2023-04-24T12:38:39;7.07;;;4.60;;
63534;SDS011;55128;50.230;18.944;2023-04-24T12:43:53;4.82;;;3.92;;
63534;SDS011;55128;50.230;18.944;2023-04-24T12:48:55;4.80;;;3.10;;
63534;SDS011;55128;50.230;18.944;2023-04-24T12:53:55;3.58;;;3.28;;
63534;SDS011;55128;50.230;18.944;2023-04-24T12:58:55;3.50;;;2.80;;
63534;SDS011;55128;50.230;18.944;2023-04-24T13:03:56;3.15;;;2.75;;
63534;SDS011;55128;50.230;18.944;2023-04-24T13:08:56;3.20;;;2.33;;
63534;SDS011;55128;50.230;18.944;2023-04-24T13:13:57;3.72;;;2.83;;
63534;SDS011;55128;50.230;18.944;2023-04-24T13:18:58;3.43;;;2.73;;
63534;SDS011;55128;50.230;18.944;2023-04-24T13:23:58;3.93;;;2.87;;
63534;SDS011;55128;50.230;18.944;2023-04-24T13:28:59;4.63;;;3.20;;
63534;SDS011;55128;50.230;18.944;2023-04-24T13:33:59;4.57;;;3.58;;
63534;SDS011;55128;50.230;18.944;2023-04-24T13:38:59;5.10;;;3.50;;
63534;SDS011;55128;50.230;18.944;2023-04-24T13:44:00;4.70;;;3.60;;
63534;SDS011;55128;50.230;18.944;2023-04-24T13:49:01;4.07;;;3.70;;
63534;SDS011;55128;50.230;18.944;2023-04-24T13:54:03;7.18;;;5.00;;
63534;SDS011;55128;50.230;18.944;2023-04-24T13:59:03;7.47;;;5.07;;
63534;SDS011;55128;50.230;18.944;2023-04-24T14:04:04;6.07;;;5.15;;
63534;SDS011;55128;50.230;18.944;2023-04-24T14:09:05;6.43;;;5.65;;
63534;SDS011;55128;50.230;18.944;2023-04-24T14:14:06;5.93;;;5.25;;
63534;SDS011;55128;50.230;18.944;2023-04-24T14:19:06;8.43;;;5.78;;
63534;SDS011;55128;50.230;18.944;2023-04-24T14:24:07;6.70;;;5.65;;
63534;SDS011;55128;50.230;18.944;2023-04-24T14:29:08;5.90;;;5.25;;
63534;SDS011;55128;50.230;18.944;2023-04-24T14:34:08;5.30;;;4.40;;
63534;SDS011;55128;50.230;18.944;2023-04-24T14:39:09;6.90;;;4.70;;
63534;SDS011;55128;50.230;18.944;2023-04-24T14:44:10;6.18;;;4.10;;
63534;SDS011;55128;50.230;18.944;2023-04-24T14:49:10;5.47;;;4.13;;
63534;SDS011;55128;50.230;18.944;2023-04-24T14:54:12;4.60;;;4.07;;
63534;SDS011;55128;50.230;18.944;2023-04-24T14:59:13;5.18;;;3.70;;
63534;SDS011;55128;50.230;18.944;2023-04-24T15:04:14;4.18;;;3.63;;
63534;SDS011;55128;50.230;18.944;2023-04-24T15:09:15;4.53;;;3.70;;
63534;SDS011;55128;50.230;18.944;2023-04-24T15:14:23;4.57;;;3.58;;
63534;SDS011;55128;50.230;18.944;2023-04-24T15:19:26;3.97;;;3.38;;
63534;SDS011;55128;50.230;18.944;2023-04-24T15:24:27;5.97;;;3.40;;
63534;SDS011;55128;50.230;18.944;2023-04-24T15:29:27;3.28;;;2.95;;
63534;SDS011;55128;50.230;18.944;2023-04-24T15:34:28;4.72;;;3.78;;
63534;SDS011;55128;50.230;18.944;2023-04-24T15:39:29;4.45;;;3.50;;
63534;SDS011;55128;50.230;18.944;2023-04-24T15:44:30;3.88;;;3.30;;
63534;SDS011;55128;50.230;18.944;2023-04-24T15:49:30;3.87;;;3.47;;
63534;SDS011;55128;50.230;18.944;2023-04-24T15:54:31;4.45;;;3.47;;
63534;SDS011;55128;50.230;18.944;2023-04-24T15:59:31;4.10;;;3.70;;
63534;SDS011;55128;50.230;18.944;2023-04-24T16:04:32;3.92;;;3.30;;
63534;SDS011;55128;50.230;18.944;2023-04-24T16:09:34;5.32;;;3.58;;
63534;SDS011;55128;50.230;18.944;2023-04-24T16:14:35;5.32;;;4.82;;
63534;SDS011;55128;50.230;18.944;2023-04-24T16:19:36;6.03;;;4.25;;
63534;SDS011;55128;50.230;18.944;2023-04-24T16:24:36;6.35;;;5.40;;
63534;SDS011;55128;50.230;18.944;2023-04-24T16:29:37;5.63;;;4.67;;
63534;SDS011;55128;50.230;18.944;2023-04-24T16:34:37;8.93;;;4.97;;
63534;SDS011;55128;50.230;18.944;2023-04-24T16:39:37;6.43;;;5.80;;
63534;SDS011;55128;50.230;18.944;2023-04-24T16:44:38;8.73;;;7.18;;
63534;SDS011;55128;50.230;18.944;2023-04-24T16:49:42;8.95;;;6.20;;
63534;SDS011;55128;50.230;18.944;2023-04-24T16:54:42;9.02;;;6.15;;
63534;SDS011;55128;50.230;18.944;2023-04-24T16:59:44;11.80;;;8.10;;
63534;SDS011;55128;50.230;18.944;2023-04-24T17:04:46;7.13;;;6.38;;
63534;SDS011;55128;50.230;18.944;2023-04-24T17:09:47;8.32;;;7.15;;
63534;SDS011;55128;50.230;18.944;2023-04-24T17:14:47;10.20;;;6.97;;
63534;SDS011;55128;50.230;18.944;2023-04-24T17:19:47;8.23;;;6.28;;
63534;SDS011;55128;50.230;18.944;2023-04-24T17:24:50;11.43;;;8.57;;
63534;SDS011;55128;50.230;18.944;2023-04-24T17:29:52;9.05;;;7.20;;
63534;SDS011;55128;50.230;18.944;2023-04-24T17:34:52;9.52;;;7.70;;
63534;SDS011;55128;50.230;18.944;2023-04-24T17:39:52;10.88;;;8.10;;
63534;SDS011;55128;50.230;18.944;2023-04-24T17:44:53;9.00;;;7.70;;
63534;SDS011;55128;50.230;18.944;2023-04-24T17:49:53;12.80;;;11.45;;
63534;SDS011;55128;50.230;18.944;2023-04-24T17:54:53;10.07;;;7.60;;
63534;SDS011;55128;50.230;18.944;2023-04-24T17:59:54;8.75;;;7.60;;
63534;SDS011;55128;50.230;18.944;2023-04-24T18:04:54;8.02;;;7.05;;
63534;SDS011;55128;50.230;18.944;2023-04-24T18:09:55;10.02;;;8.98;;
63534;SDS011;55128;50.230;18.944;2023-04-24T18:14:55;10.88;;;9.88;;
63534;SDS011;55128;50.230;18.944;2023-04-24T18:19:56;9.90;;;8.68;;
63534;SDS011;55128;50.230;18.944;2023-04-24T18:24:56;8.70;;;7.80;;
63534;SDS011;55128;50.230;18.944;2023-04-24T18:29:57;10.77;;;8.53;;
63534;SDS011;55128;50.230;18.944;2023-04-24T18:34:58;11.45;;;9.90;;
63534;SDS011;55128;50.230;18.944;2023-04-24T18:39:58;12.13;;;9.65;;
63534;SDS011;55128;50.230;18.944;2023-04-24T18:44:59;13.43;;;11.23;;
63534;SDS011;55128;50.230;18.944;2023-04-24T18:50:00;13.55;;;11.23;;
63534;SDS011;55128;50.230;18.944;2023-04-24T18:55:01;14.90;;;11.82;;
63534;SDS011;55128;50.230;18.944;2023-04-24T19:00:02;17.80;;;15.18;;
63534;SDS011;55128;50.230;18.944;2023-04-24T19:05:03;18.98;;;15.20;;
63534;SDS011;55128;50.230;18.944;2023-04-24T19:10:04;18.83;;;15.30;;
63534;SDS011;55128;50.230;18.944;2023-04-24T19:15:05;19.77;;;16.08;;
63534;SDS011;55128;50.230;18.944;2023-04-24T19:20:09;19.23;;;16.55;;
63534;SDS011;55128;50.230;18.944;2023-04-24T19:25:10;23.55;;;17.65;;
63534;SDS011;55128;50.230;18.944;2023-04-24T19:30:11;20.08;;;17.00;;
63534;SDS011;55128;50.230;18.944;2023-04-24T19:35:13;21.45;;;19.02;;
63534;SDS011;55128;50.230;18.944;2023-04-24T19:51:47;24.38;;;20.70;;
63534;SDS011;55128;50.230;18.944;2023-04-24T19:56:48;25.48;;;21.00;;
63534;SDS011;55128;50.230;18.944;2023-04-24T20:01:48;27.50;;;22.85;;
63534;SDS011;55128;50.230;18.944;2023-04-24T20:06:50;24.83;;;22.13;;
63534;SDS011;55128;50.230;18.944;2023-04-24T20:11:50;27.47;;;22.33;;
63534;SDS011;55128;50.230;18.944;2023-04-24T20:16:53;27.45;;;22.63;;
63534;SDS011;55128;50.230;18.944;2023-04-24T20:21:54;25.83;;;23.02;;
63534;SDS011;55128;50.230;18.944;2023-04-24T20:26:54;26.00;;;23.20;;
63534;SDS011;55128;50.230;18.944;2023-04-24T20:31:56;26.83;;;23.38;;
63534;SDS011;55128;50.230;18.944;2023-04-24T20:36:57;27.33;;;24.05;;
63534;SDS011;55128;50.230;18.944;2023-04-24T20:42:01;25.57;;;22.57;;
63534;SDS011;55128;50.230;18.944;2023-04-24T20:47:01;24.27;;;21.67;;
63534;SDS011;55128;50.230;18.944;2023-04-24T20:52:02;26.25;;;23.40;;
63534;SDS011;55128;50.230;18.944;2023-04-24T20:57:02;25.30;;;22.60;;
63534;SDS011;55128;50.230;18.944;2023-04-24T21:02:03;23.80;;;21.33;;
63534;SDS011;55128;50.230;18.944;2023-04-24T21:07:03;22.42;;;20.15;;
63534;SDS011;55128;50.230;18.944;2023-04-24T21:12:04;18.10;;;16.35;;
63534;SDS011;55128;50.230;18.944;2023-04-24T21:22:14;15.52;;;13.93;;
63534;SDS011;55128;50.230;18.944;2023-04-24T21:27:17;15.45;;;13.48;;
63534;SDS011;55128;50.230;18.944;2023-04-24T21:32:31;15.93;;;14.17;;
63534;SDS011;55128;50.230;18.944;2023-04-24T21:37:39;13.90;;;12.43;;
63534;SDS011;55128;50.230;18.944;2023-04-24T21:42:42;11.65;;;10.18;;
63534;SDS011;55128;50.230;18.944;2023-04-24T21:47:42;10.82;;;9.45;;
63534;SDS011;55128;50.230;18.944;2023-04-24T21:52:42;8.33;;;7.43;;
63534;SDS011;55128;50.230;18.944;2023-04-24T21:57:43;10.60;;;9.00;;
63534;SDS011;55128;50.230;18.944;2023-04-24T22:02:43;10.98;;;9.63;;
63534;SDS011;55128;50.230;18.944;2023-04-24T22:07:44;10.25;;;7.43;;
63534;SDS011;55128;50.230;18.944;2023-04-24T22:12:45;8.45;;;6.53;;
63534;SDS011;55128;50.230;18.944;2023-04-24T22:17:46;7.13;;;6.43;;
63534;SDS011;55128;50.230;18.944;2023-04-24T22:22:48;8.25;;;7.25;;
63534;SDS011;55128;50.230;18.944;2023-04-24T22:27:48;6.82;;;4.78;;
63534;SDS011;55128;50.230;18.944;2023-04-24T22:32:49;7.70;;;6.07;;
63534;SDS011;55128;50.230;18.944;2023-04-24T22:37:57;9.07;;;5.82;;
63534;SDS011;55128;50.230;18.944;2023-04-24T22:42:58;6.75;;;5.57;;
63534;SDS011;55128;50.230;18.944;2023-04-24T22:47:58;6.57;;;5.40;;
63534;SDS011;55128;50.230;18.944;2023-04-24T22:52:59;6.68;;;5.00;;
63534;SDS011;55128;50.230;18.944;2023-04-24T22:57:59;6.20;;;5.05;;
63534;SDS011;55128;50.230;18.944;2023-04-24T23:03:00;6.05;;;5.18;;
63534;SDS011;55128;50.230;18.944;2023-04-24T23:08:00;6.13;;;4.93;;
63534;SDS011;55128;50.230;18.944;2023-04-24T23:13:01;7.25;;;5.40;;
63534;SDS011;55128;50.230;18.944;2023-04-24T23:18:01;7.70;;;5.60;;
63534;SDS011;55128;50.230;18.944;2023-04-24T23:23:01;7.25;;;5.93;;
63534;SDS011;55128;50.230;18.944;2023-04-24T23:28:02;7.28;;;6.30;;
63534;SDS011;55128;50.230;18.944;2023-04-24T23:33:02;7.97;;;5.97;;
63534;SDS011;55128;50.230;18.944;2023-04-24T23:38:03;8.30;;;6.55;;
63534;SDS011;55128;50.230;18.944;2023-04-24T23:43:04;9.57;;;6.40;;
63534;SDS011;55128;50.230;18.944;2023-04-24T23:48:04;8.50;;;7.13;;
63534;SDS011;55128;50.230;18.944;2023-04-24T23:53:04;7.93;;;6.70;;
63534;SDS011;55128;50.230;18.944;2023-04-24T23:58:05;8.63;;;7.07;;
